Vasiliy Bozhenko — URHP — position and weather

sailwx.info

Track history (hours):
 
Tides and Currents Weather Stations Pressure Air Temp Water Temp Dewpoint Dewpoint Depression Visibility Wind Speed Wind Dir Waves Ship Positions

Vasiliy Bozhenko

Last reported at 2016-May-24 19:33 UTC. Time now 2016-May-24 19:34 UTC.
Position N 47°52' E 035°06'.

Length 114 m; draft 2.9 m.

Type: Cargo ship. MMSI: 272085000.

Date/timePositionNaut miles runAvg speedWind from/ knotsBaromVisibWave heightAir tempDewpointWater temp
2016-May-24 19:33N 47°52' E 035°06'0 0.0
2016-May-24 18:24N 47°52' E 035°06'1 0.9
2016-May-24 17:33N 47°52' E 035°05'3 3.2
2016-May-24 16:33N 47°49' E 035°08'6 6.2
2016-May-24 15:33N 47°43' E 035°09'4 4.3
2016-May-24 14:33N 47°39' E 035°06'142 5.4
2016-May-23 12:12N 46°32' E 032°03'5 7.8
2016-May-23 11:33N 46°34' E 031°56'36 7.1
2016-May-23 06:33N 46°34' E 031°04'6 6.2
2016-May-23 05:33N 46°31' E 030°57'8 7.7
2016-May-23 04:33N 46°23' E 030°57'7 7.2
2016-May-23 03:33N 46°16' E 030°59'7 7.5
2016-May-23 02:33N 46°11' E 031°06'8 7.5
2016-May-23 01:33N 46°05' E 031°13'  
2016-May-18 00:08N 46°22' E 030°55'4 7.1
2016-May-17 23:30N 46°27' E 030°56'6 6.4
2016-May-17 22:33N 46°33' E 030°57'178 4.5
2016-May-16 07:23N 47°34' E 035°02'6 7.3
2016-May-16 06:34N 47°39' E 035°07'7 7.1
2016-May-16 05:34N 47°46' E 035°09'3 3.1
2016-May-16 04:34N 47°49' E 035°08'3 3.1
2016-May-16 03:33N 47°52' E 035°06'1 0.7
2016-May-16 02:32N 47°52' E 035°06'0 0.0
2016-May-16 01:32N 47°52' E 035°06'0 0.0
2016-May-16 00:32N 47°52' E 035°06'0 0.0
2016-May-15 23:32N 47°52' E 035°06'0 0.0
2016-May-15 22:32N 47°52' E 035°06'0 0.0
2016-May-15 21:22N 47°52' E 035°06'0 0.0
2016-May-15 20:28N 47°52' E 035°06'0 0.0
2016-May-15 19:28N 47°52' E 035°06'0 0.0
2016-May-15 18:28N 47°52' E 035°06'0 0.0
2016-May-15 17:28N 47°52' E 035°06'0 0.0
2016-May-15 16:28N 47°52' E 035°06'0 0.0
2016-May-15 15:28N 47°52' E 035°06'0 0.0
2016-May-15 14:33N 47°52' E 035°06'0 0.0
2016-May-15 13:32N 47°52' E 035°06'0 0.0
2016-May-15 12:32N 47°52' E 035°06'0 0.0
2016-May-15 11:32N 47°52' E 035°06'0 0.0
2016-May-15 10:20N 47°52' E 035°06'0 0.0
2016-May-15 09:33N 47°52' E 035°06'0 0.0
2016-May-15 07:30N 47°52' E 035°06'0 0.0
2016-May-15 06:32N 47°52' E 035°06'0 0.0
2016-May-15 05:30N 47°52' E 035°06'0 0.0
2016-May-15 04:28N 47°52' E 035°06'0 0.0
2016-May-15 03:28N 47°52' E 035°06'0 0.0
2016-May-15 02:33N 47°52' E 035°06'0 0.0
2016-May-15 01:33N 47°52' E 035°06'0 0.0
2016-May-15 00:25N 47°52' E 035°06'0 0.0
2016-May-14 23:33N 47°52' E 035°06'0 0.0
2016-May-14 22:32N 47°52' E 035°06'0 0.0
2016-May-14 21:32N 47°52' E 035°06'0 0.0
2016-May-14 20:33N 47°52' E 035°06'0 0.0
2016-May-14 19:33N 47°52' E 035°06'  
Track history (hours):
 
Tides and Currents Weather Stations Pressure Air Temp Water Temp Dewpoint Dewpoint Depression Visibility Wind Speed Wind Dir Waves Ship Positions

Vasiliy Bozhenko

Last reported at 2016-May-24 19:33 UTC. Time now 2016-May-24 19:34 UTC.
Position N 47°52' E 035°06'.

Length 114 m; draft 2.9 m.

Type: Cargo ship. MMSI: 272085000.

Date/timePositionNaut miles runAvg speedWind from/ knotsBaromVisibWave heightAir tempDewpointWater temp
2016-May-24 19:33N 47°52' E 035°06'0 0.0
2016-May-24 18:24N 47°52' E 035°06'1 0.9
2016-May-24 17:33N 47°52' E 035°05'3 3.2
2016-May-24 16:33N 47°49' E 035°08'6 6.2
2016-May-24 15:33N 47°43' E 035°09'4 4.3
2016-May-24 14:33N 47°39' E 035°06'142 5.4
2016-May-23 12:12N 46°32' E 032°03'5 7.8
2016-May-23 11:33N 46°34' E 031°56'36 7.1
2016-May-23 06:33N 46°34' E 031°04'6 6.2
2016-May-23 05:33N 46°31' E 030°57'8 7.7
2016-May-23 04:33N 46°23' E 030°57'7 7.2
2016-May-23 03:33N 46°16' E 030°59'7 7.5
2016-May-23 02:33N 46°11' E 031°06'8 7.5
2016-May-23 01:33N 46°05' E 031°13'  
2016-May-18 00:08N 46°22' E 030°55'4 7.1
2016-May-17 23:30N 46°27' E 030°56'6 6.4
2016-May-17 22:33N 46°33' E 030°57'178 4.5
2016-May-16 07:23N 47°34' E 035°02'6 7.3
2016-May-16 06:34N 47°39' E 035°07'7 7.1
2016-May-16 05:34N 47°46' E 035°09'3 3.1
2016-May-16 04:34N 47°49' E 035°08'3 3.1
2016-May-16 03:33N 47°52' E 035°06'1 0.7
2016-May-16 02:32N 47°52' E 035°06'0 0.0
2016-May-16 01:32N 47°52' E 035°06'0 0.0
2016-May-16 00:32N 47°52' E 035°06'0 0.0
2016-May-15 23:32N 47°52' E 035°06'0 0.0
2016-May-15 22:32N 47°52' E 035°06'0 0.0
2016-May-15 21:22N 47°52' E 035°06'0 0.0
2016-May-15 20:28N 47°52' E 035°06'0 0.0
2016-May-15 19:28N 47°52' E 035°06'0 0.0
2016-May-15 18:28N 47°52' E 035°06'0 0.0
2016-May-15 17:28N 47°52' E 035°06'0 0.0
2016-May-15 16:28N 47°52' E 035°06'0 0.0
2016-May-15 15:28N 47°52' E 035°06'0 0.0
2016-May-15 14:33N 47°52' E 035°06'0 0.0
2016-May-15 13:32N 47°52' E 035°06'0 0.0
2016-May-15 12:32N 47°52' E 035°06'0 0.0
2016-May-15 11:32N 47°52' E 035°06'0 0.0
2016-May-15 10:20N 47°52' E 035°06'0 0.0
2016-May-15 09:33N 47°52' E 035°06'0 0.0
2016-May-15 07:30N 47°52' E 035°06'0 0.0
2016-May-15 06:32N 47°52' E 035°06'0 0.0
2016-May-15 05:30N 47°52' E 035°06'0 0.0
2016-May-15 04:28N 47°52' E 035°06'0 0.0
2016-May-15 03:28N 47°52' E 035°06'0 0.0
2016-May-15 02:33N 47°52' E 035°06'0 0.0
2016-May-15 01:33N 47°52' E 035°06'0 0.0
2016-May-15 00:25N 47°52' E 035°06'0 0.0
2016-May-14 23:33N 47°52' E 035°06'0 0.0
2016-May-14 22:32N 47°52' E 035°06'0 0.0
2016-May-14 21:32N 47°52' E 035°06'0 0.0
2016-May-14 20:33N 47°52' E 035°06'0 0.0
2016-May-14 19:33N 47°52' E 035°06'  

Dump ship's entire track history